SPHI

Capitan FAP Jose A Quinones Gonzales International Airport

Chiclayo, Peru
SPHI 211700Z 2118/2218 18008KT 9999 SCT012 BKN033 TX21/2119Z TN16/2211Z FM212100 18015KT 9999 SCT020 BECMG 2203/2206 18008KT OVC010 TEMPO 2210/2212 5000 BR BKN004 OVC007 BECMG 2214/2216 BKN015
Issued Valid From Valid To
Jun-21 @ 17:00 UTC
(an hour ago)
Jun-21 @ 18:00 UTC
(10 minutes ago)
Jun-22 @ 18:00 UTC
(in 24 hours)
Jun-21 @ 18:00 to Jun-21 @ 21:00
SPHI 211700Z 2118/2218 18008KT 9999 SCT012 BKN033 TX21/2119Z TN16/2211Z
Wind Visibility Clouds
180° at 8 knots 10,000+ meters
  • Scattered at 1,200' AGL
  • Broken at 3,300' AGL
From Jun-21 @ 21:00 to Jun-22 @ 03:00
FM212100 18015KT 9999 SCT020
Wind Visibility Clouds
180° at 15 knots 10,000+ meters
  • Scattered at 2,000' AGL
Becoming Jun-22 @ 03:00 to Jun-22 @ 14:00
BECMG 2203/2206 18008KT OVC010
Wind Visibility Clouds
180° at 8 knots 10,000+ meters
  • Overcast at 1,000' AGL
Temporary Jun-22 @ 10:00 to Jun-22 @ 12:00
TEMPO 2210/2212 5000 BR BKN004 OVC007
Visibility Clouds Conditions
5,005 meters
  • Broken at 400' AGL
  • Overcast at 700' AGL
  • Mist
Becoming Jun-22 @ 14:00 to Jun-22 @ 18:00
BECMG 2214/2216 BKN015
Wind Visibility Clouds
180° at 8 knots 10,000+ meters
  • Broken at 1,500' AGL
SPHI 211700Z 2118/2218 18008KT 9999 SCT012 BKN033 TX21/2119Z TN16/2211Z FM212100 18015KT 9999 SCT020 BECMG 2203/2206 18008KT OVC010 TEMPO 2210/2212 5000 BR BKN004 OVC007 BECMG 2214/2216 BKN015
Issued Jun-21 @ 17:00 UTC
(an hour ago)
Valid From Jun-21 @ 18:00 UTC
(10 minutes ago)
Valid To Jun-22 @ 18:00 UTC
(in 24 hours)
Jun-21 @ 18:00 - Jun-21 @ 21:00
Wind Visibility
180° at 8 knots 10,000+ meters
Clouds
  • Scattered at 1,200' AGL
  • Broken at 3,300' AGL
From Jun-21 @ 21:00 - Jun-22 @ 03:00
Wind Visibility
180° at 15 knots 10,000+ meters
Clouds
  • Scattered at 2,000' AGL
Becoming Jun-22 @ 03:00 - Jun-22 @ 14:00
Wind Visibility
180° at 8 knots 10,000+ meters
Clouds
  • Overcast at 1,000' AGL
Temporary Jun-22 @ 10:00 - Jun-22 @ 12:00
Clouds
  • Broken at 400' AGL
  • Overcast at 700' AGL
Conditions
  • Mist
Becoming Jun-22 @ 14:00 - Jun-22 @ 18:00
Wind Visibility
180° at 8 knots 10,000+ meters
Clouds
  • Broken at 1,500' AGL